Time;durP1;ratioP1;P1;durP2;ratioP2;P2;SDS_P1;SDS_P2;PMS_P1;PMS_P2;Temp;Humidity;BMP_temperature;BMP_pressure;BME280_temperature;BME280_humidity;BME280_pressure;Samples;Min_cycle;Max_cycle;Signal;HPM_P1;HPM_P2
2022/05/23 00:01:12;;;;;;;;;6.25;6.25;;;;;;;;5037239;28;8795;-77
2022/05/23 00:03:39;;;;;;;;;8.50;7.00;;;;;;;;5034759;28;9013;-75
2022/05/23 00:06:08;;;;;;;;;6.50;6.50;;;;;;;;5038761;28;8908;-75
2022/05/23 00:08:35;;;;;;;;;5.75;5.75;;;;;;;;5033589;28;8948;-77
2022/05/23 00:11:02;;;;;;;;;6.00;6.00;;;;;;;;5039702;28;8891;-76
2022/05/23 00:13:30;;;;;;;;;5.50;5.25;;;;;;;;5040760;28;8867;-75
2022/05/23 00:15:57;;;;;;;;;5.50;5.50;;;;;;;;5034608;28;8877;-75
2022/05/23 00:18:24;;;;;;;;;6.75;6.50;;;;;;;;5037532;28;8875;-75
2022/05/23 00:20:52;;;;;;;;;4.75;4.75;;;;;;;;5036933;28;8875;-76
2022/05/23 00:23:22;;;;;;;;;5.25;5.25;;;;;;;;5040836;28;8924;-75
2022/05/23 00:25:49;;;;;;;;;6.00;6.00;;;;;;;;5033671;28;8882;-75
2022/05/23 00:28:17;;;;;;;;;5.00;5.00;;;;;;;;5034022;28;8871;-75
2022/05/23 00:30:45;;;;;;;;;6.75;6.75;;;;;;;;5037887;28;8936;-77
2022/05/23 00:35:58;;;;;;;;;7.00;7.00;;;;;;;;5027218;28;8854;-80
2022/05/23 00:38:27;;;;;;;;;6.00;6.00;;;;;;;;5038275;28;8932;-77
2022/05/23 00:43:41;;;;;;;;;7.00;5.75;;;;;;;;5037183;28;8871;-78
2022/05/23 00:46:08;;;;;;;;;6.25;6.25;;;;;;;;5032916;28;8882;-76
2022/05/23 00:48:35;;;;;;;;;7.00;7.00;;;;;;;;5037090;28;8855;-74
2022/05/23 00:51:05;;;;;;;;;8.00;6.00;;;;;;;;5034939;28;8886;-76
2022/05/23 00:53:38;;;;;;;;;7.75;6.00;;;;;;;;5034442;28;8889;-76
2022/05/23 00:56:07;;;;;;;;;6.50;6.50;;;;;;;;5035281;28;8879;-74
2022/05/23 00:58:39;;;;;;;;;5.75;5.00;;;;;;;;5040732;28;8855;-75
2022/05/23 01:01:11;;;;;;;;;4.50;4.50;;;;;;;;5034736;28;8801;-74
2022/05/23 01:03:39;;;;;;;;;5.00;5.00;;;;;;;;5034847;28;8862;-75
2022/05/23 01:06:08;;;;;;;;;5.50;5.50;;;;;;;;5040223;28;8900;-75
2022/05/23 01:08:38;;;;;;;;;3.00;3.00;;;;;;;;5034832;28;8947;-75
2022/05/23 01:11:05;;;;;;;;;5.25;5.25;;;;;;;;5036784;28;9075;-74
2022/05/23 01:13:33;;;;;;;;;6.00;6.00;;;;;;;;5060323;28;8855;-75
2022/05/23 01:16:00;;;;;;;;;5.75;5.75;;;;;;;;5039175;28;8893;-74
2022/05/23 01:18:27;;;;;;;;;5.50;5.00;;;;;;;;5034751;28;8875;-77
2022/05/23 01:20:57;;;;;;;;;6.00;6.00;;;;;;;;5036227;28;8874;-75
2022/05/23 01:23:40;;;;;;;;;5.75;5.75;;;;;;;;5039474;28;8855;-76
2022/05/23 01:26:09;;;;;;;;;7.25;6.25;;;;;;;;5037819;28;9655;-76
2022/05/23 01:28:38;;;;;;;;;6.00;5.50;;;;;;;;5039415;28;9030;-74
2022/05/23 01:31:05;;;;;;;;;7.00;5.75;;;;;;;;5034891;28;8871;-77
2022/05/23 01:33:33;;;;;;;;;6.00;6.00;;;;;;;;5036830;28;9032;-75
2022/05/23 01:36:01;;;;;;;;;8.50;7.25;;;;;;;;5038754;28;9655;-75
2022/05/23 01:38:28;;;;;;;;;6.75;6.75;;;;;;;;5038039;28;8871;-75
2022/05/23 01:40:56;;;;;;;;;7.50;5.75;;;;;;;;5039618;28;8912;-75
2022/05/23 01:43:26;;;;;;;;;6.25;6.25;;;;;;;;5036693;28;9517;-75
2022/05/23 01:45:53;;;;;;;;;5.00;5.00;;;;;;;;5037671;28;8863;-75
2022/05/23 01:48:21;;;;;;;;;6.50;6.50;;;;;;;;5033146;28;9017;-75
2022/05/23 01:50:48;;;;;;;;;6.00;6.00;;;;;;;;5037750;28;8890;-76
2022/05/23 01:53:15;;;;;;;;;5.25;5.25;;;;;;;;5039011;28;8923;-75
2022/05/23 01:55:42;;;;;;;;;4.25;4.25;;;;;;;;5028784;28;8870;-75
2022/05/23 01:58:10;;;;;;;;;6.75;6.75;;;;;;;;5039709;28;9009;-76
2022/05/23 02:03:24;;;;;;;;;7.00;7.00;;;;;;;;5041876;28;8949;-75
2022/05/23 02:05:51;;;;;;;;;5.50;5.50;;;;;;;;5041410;28;8879;-75
2022/05/23 02:08:19;;;;;;;;;5.25;5.25;;;;;;;;5037942;28;8943;-76
2022/05/23 02:10:46;;;;;;;;;6.00;6.00;;;;;;;;5034733;28;8838;-73
2022/05/23 02:13:13;;;;;;;;;7.50;7.50;;;;;;;;5036072;28;8890;-74
2022/05/23 02:15:43;;;;;;;;;6.25;6.25;;;;;;;;5043500;28;9001;-76
2022/05/23 02:18:10;;;;;;;;;8.00;8.00;;;;;;;;5036832;28;8862;-75
2022/05/23 02:20:39;;;;;;;;;8.75;8.25;;;;;;;;5041774;28;8883;-78
2022/05/23 02:23:07;;;;;;;;;8.00;6.75;;;;;;;;5037419;28;8859;-74
2022/05/23 02:25:34;;;;;;;;;7.50;7.50;;;;;;;;5039055;28;9755;-74
2022/05/23 02:28:02;;;;;;;;;9.00;9.00;;;;;;;;5039615;28;9705;-74
2022/05/23 02:30:29;;;;;;;;;9.00;8.75;;;;;;;;5034956;28;8782;-74
2022/05/23 02:32:58;;;;;;;;;10.75;9.25;;;;;;;;5038379;28;8878;-74
2022/05/23 02:35:25;;;;;;;;;9.25;9.25;;;;;;;;5038137;28;8871;-75
2022/05/23 02:37:52;;;;;;;;;8.00;7.00;;;;;;;;5034044;28;8874;-74
2022/05/23 02:40:20;;;;;;;;;7.50;7.50;;;;;;;;5037107;28;8867;-75
2022/05/23 02:42:47;;;;;;;;;8.75;7.50;;;;;;;;5039650;28;8887;-75
2022/05/23 02:45:14;;;;;;;;;9.00;9.00;;;;;;;;5039866;28;8901;-77
2022/05/23 02:47:43;;;;;;;;;5.75;5.75;;;;;;;;5035491;28;8977;-74
2022/05/23 02:50:13;;;;;;;;;10.00;8.25;;;;;;;;5035845;28;8855;-74
2022/05/23 02:52:40;;;;;;;;;7.50;7.50;;;;;;;;5035952;28;8909;-76
2022/05/23 02:55:09;;;;;;;;;6.00;6.00;;;;;;;;5040719;28;8907;-75
2022/05/23 02:57:37;;;;;;;;;8.00;7.25;;;;;;;;5037863;28;9680;-76
2022/05/23 03:00:05;;;;;;;;;8.50;7.25;;;;;;;;5041441;28;8888;-75
2022/05/23 03:05:19;;;;;;;;;6.00;6.00;;;;;;;;5033864;28;8855;-75
2022/05/23 03:07:46;;;;;;;;;6.00;6.00;;;;;;;;5037292;28;8911;-77
2022/05/23 03:10:14;;;;;;;;;7.75;6.25;;;;;;;;5033259;28;8891;-75
2022/05/23 03:12:42;;;;;;;;;6.25;6.25;;;;;;;;5039059;28;8980;-75
2022/05/23 03:15:10;;;;;;;;;6.75;6.75;;;;;;;;5035680;28;9449;-75
2022/05/23 03:17:38;;;;;;;;;6.50;6.50;;;;;;;;5036687;28;8878;-76
2022/05/23 03:20:06;;;;;;;;;7.50;7.00;;;;;;;;5041214;28;8867;-76
2022/05/23 03:28:06;;;;;;;;;6.00;6.00;;;;;;;;5037819;28;9476;-77
2022/05/23 03:30:34;;;;;;;;;8.25;6.50;;;;;;;;5036845;28;8803;-75
2022/05/23 03:33:01;;;;;;;;;5.50;5.50;;;;;;;;5038491;28;9181;-80
2022/05/23 03:35:31;;;;;;;;;5.75;4.00;;;;;;;;5037364;28;8903;-74
2022/05/23 03:37:59;;;;;;;;;5.25;5.25;;;;;;;;5035625;28;8869;-74
2022/05/23 03:40:27;;;;;;;;;6.75;6.75;;;;;;;;5040078;28;8973;-76
2022/05/23 03:42:55;;;;;;;;;6.75;6.75;;;;;;;;5036366;28;8905;-75
2022/05/23 03:45:23;;;;;;;;;6.50;6.50;;;;;;;;5037587;28;8907;-75
2022/05/23 03:47:51;;;;;;;;;8.50;7.50;;;;;;;;5040794;28;8885;-77
2022/05/23 03:50:18;;;;;;;;;7.50;5.75;;;;;;;;5036199;28;8865;-76
2022/05/23 03:52:46;;;;;;;;;5.25;5.25;;;;;;;;5037348;28;8990;-76
2022/05/23 03:55:15;;;;;;;;;5.50;5.50;;;;;;;;5037349;28;8894;-75
2022/05/23 03:57:42;;;;;;;;;6.50;6.50;;;;;;;;5038793;28;8944;-76
2022/05/23 04:00:13;;;;;;;;;8.25;7.00;;;;;;;;5037759;28;8859;-76
2022/05/23 04:02:41;;;;;;;;;8.00;8.00;;;;;;;;5041050;28;9404;-75
2022/05/23 04:05:12;;;;;;;;;6.00;6.00;;;;;;;;5040738;28;8910;-78
2022/05/23 04:07:40;;;;;;;;;9.00;8.00;;;;;;;;5040990;28;8870;-74
2022/05/23 04:10:10;;;;;;;;;7.50;5.25;;;;;;;;5041866;28;8882;-76
2022/05/23 04:12:39;;;;;;;;;7.25;7.25;;;;;;;;5042106;28;8976;-74
2022/05/23 04:15:08;;;;;;;;;8.00;8.00;;;;;;;;5039799;28;8882;-74
2022/05/23 04:17:36;;;;;;;;;9.50;7.75;;;;;;;;5036679;28;8874;-75
2022/05/23 04:20:04;;;;;;;;;9.00;8.00;;;;;;;;5056799;28;8866;-75
2022/05/23 04:22:32;;;;;;;;;7.50;7.50;;;;;;;;5040564;28;8928;-76
2022/05/23 04:25:00;;;;;;;;;7.00;7.00;;;;;;;;5036763;28;8894;-75
2022/05/23 04:27:27;;;;;;;;;10.50;8.25;;;;;;;;5033179;28;8891;-74
2022/05/23 04:29:56;;;;;;;;;7.75;7.75;;;;;;;;5036266;28;8958;-76
2022/05/23 04:35:16;;;;;;;;;7.75;7.75;;;;;;;;5030985;28;8830;-76
2022/05/23 04:37:48;;;;;;;;;8.75;8.00;;;;;;;;5034168;28;8901;-77
2022/05/23 04:40:17;;;;;;;;;12.75;9.75;;;;;;;;5034372;28;8959;-77
2022/05/23 04:42:44;;;;;;;;;9.25;8.50;;;;;;;;5031950;28;8887;-77
2022/05/23 04:45:14;;;;;;;;;10.50;8.25;;;;;;;;5031775;28;8893;-81
2022/05/23 04:50:26;;;;;;;;;9.75;9.75;;;;;;;;5037611;28;8859;-76
2022/05/23 04:52:56;;;;;;;;;11.25;9.50;;;;;;;;5032541;28;8909;-79
2022/05/23 04:55:24;;;;;;;;;9.25;9.25;;;;;;;;5013110;28;8882;-79
2022/05/23 04:57:52;;;;;;;;;8.00;8.00;;;;;;;;5032321;28;9055;-78
2022/05/23 05:00:23;;;;;;;;;8.25;8.25;;;;;;;;5033538;28;8997;-80
2022/05/23 05:02:51;;;;;;;;;9.50;9.50;;;;;;;;5032483;28;8866;-79
2022/05/23 05:05:20;;;;;;;;;10.25;8.00;;;;;;;;5034320;28;8883;-79
2022/05/23 05:07:47;;;;;;;;;8.75;7.75;;;;;;;;5027473;28;8875;-76
2022/05/23 05:10:14;;;;;;;;;7.00;7.00;;;;;;;;5028764;28;9617;-75
2022/05/23 05:12:41;;;;;;;;;6.00;6.00;;;;;;;;5032888;28;8904;-75
2022/05/23 05:15:10;;;;;;;;;8.00;6.75;;;;;;;;5031858;28;8875;-75
2022/05/23 05:17:42;;;;;;;;;12.00;11.25;;;;;;;;5037258;28;8843;-78
2022/05/23 05:20:10;;;;;;;;;7.00;7.00;;;;;;;;5035143;28;8863;-78
2022/05/23 05:22:38;;;;;;;;;8.00;8.00;;;;;;;;5039407;28;8869;-76
2022/05/23 05:25:06;;;;;;;;;10.50;8.25;;;;;;;;5034730;28;8866;-78
2022/05/23 05:27:34;;;;;;;;;10.00;9.00;;;;;;;;5039616;28;8905;-77
2022/05/23 05:30:02;;;;;;;;;9.00;8.00;;;;;;;;5039611;28;8964;-76
2022/05/23 05:32:37;;;;;;;;;7.25;7.25;;;;;;;;5039641;28;9002;-76
2022/05/23 05:35:09;;;;;;;;;9.00;8.00;;;;;;;;5036871;28;8845;-77
2022/05/23 05:37:44;;;;;;;;;8.50;7.50;;;;;;;;5043487;28;8870;-76
2022/05/23 05:40:12;;;;;;;;;6.50;6.50;;;;;;;;5040741;28;8959;-77
2022/05/23 05:42:44;;;;;;;;;7.25;7.25;;;;;;;;5037972;28;9688;-75
2022/05/23 05:45:14;;;;;;;;;8.50;7.75;;;;;;;;5039360;28;9351;-76
2022/05/23 05:47:44;;;;;;;;;9.50;8.00;;;;;;;;5049709;28;8916;-75
2022/05/23 05:50:16;;;;;;;;;6.75;6.75;;;;;;;;5046879;28;8877;-76
2022/05/23 05:52:45;;;;;;;;;7.50;7.50;;;;;;;;5047514;28;8883;-78
2022/05/23 05:55:13;;;;;;;;;6.75;6.75;;;;;;;;5041343;28;8924;-74
2022/05/23 05:57:41;;;;;;;;;7.00;7.00;;;;;;;;5042187;28;9675;-75
2022/05/23 06:00:10;;;;;;;;;6.50;6.50;;;;;;;;5043100;28;8921;-74
2022/05/23 06:02:38;;;;;;;;;6.75;6.75;;;;;;;;5040049;28;8863;-70
2022/05/23 06:05:06;;;;;;;;;9.00;8.50;;;;;;;;5038195;28;8899;-72
2022/05/23 06:13:13;;;;;;;;;8.75;8.75;;;;;;;;4986872;28;8866;-71
2022/05/23 06:15:41;;;;;;;;;10.00;8.50;;;;;;;;5040063;28;9663;-70
2022/05/23 06:18:08;;;;;;;;;7.50;7.25;;;;;;;;5037714;28;8910;-71
2022/05/23 06:20:35;;;;;;;;;7.00;7.00;;;;;;;;5038947;28;8903;-72
2022/05/23 06:23:05;;;;;;;;;5.50;5.50;;;;;;;;5040308;28;9691;-74
2022/05/23 06:25:33;;;;;;;;;9.00;9.00;;;;;;;;5039390;28;9284;-75
2022/05/23 06:28:00;;;;;;;;;9.75;8.25;;;;;;;;5040177;28;8865;-72
2022/05/23 06:30:28;;;;;;;;;7.00;6.75;;;;;;;;5038855;28;8801;-71
2022/05/23 06:32:55;;;;;;;;;6.50;6.50;;;;;;;;5037826;28;8906;-70
2022/05/23 06:35:23;;;;;;;;;6.00;6.00;;;;;;;;5037792;28;8898;-72
2022/05/23 06:37:50;;;;;;;;;7.75;7.75;;;;;;;;5041550;28;8969;-71
2022/05/23 06:40:19;;;;;;;;;8.00;7.00;;;;;;;;5041150;28;8914;-71
2022/05/23 06:42:47;;;;;;;;;8.00;6.50;;;;;;;;5037074;28;8875;-73
2022/05/23 06:45:14;;;;;;;;;8.75;8.75;;;;;;;;5034408;28;9643;-67
2022/05/23 06:47:41;;;;;;;;;8.50;8.50;;;;;;;;5041454;28;8966;-65
2022/05/23 06:50:09;;;;;;;;;12.00;9.75;;;;;;;;5036213;28;8879;-66
2022/05/23 06:52:37;;;;;;;;;8.75;8.00;;;;;;;;5038968;28;8896;-69
2022/05/23 06:55:05;;;;;;;;;8.25;8.25;;;;;;;;5036933;28;8855;-67
2022/05/23 06:57:33;;;;;;;;;9.50;8.00;;;;;;;;5036978;28;8916;-67
2022/05/23 07:00:01;;;;;;;;;10.50;10.25;;;;;;;;5035031;28;8885;-69
2022/05/23 07:02:28;;;;;;;;;9.25;9.00;;;;;;;;5036208;28;9613;-68
2022/05/23 07:13:22;;;;;;;;;10.00;8.75;;;;;;;;4990244;28;8938;-69
2022/05/23 07:15:50;;;;;;;;;8.00;8.00;;;;;;;;5021544;28;9604;-68
2022/05/23 07:18:17;;;;;;;;;8.60;7.80;;;;;;;;5039941;28;8886;-69
2022/05/23 07:20:45;;;;;;;;;9.50;8.00;;;;;;;;5040291;28;8851;-68
2022/05/23 07:23:13;;;;;;;;;4.00;4.00;;;;;;;;5034197;28;8889;-71
2022/05/23 07:25:41;;;;;;;;;9.50;9.50;;;;;;;;5037656;28;9048;-72
2022/05/23 07:28:08;;;;;;;;;7.25;7.25;;;;;;;;5039157;28;8855;-69
2022/05/23 07:30:37;;;;;;;;;5.80;5.80;;;;;;;;5036322;28;8799;-70
2022/05/23 07:33:06;;;;;;;;;8.20;8.20;;;;;;;;5036571;28;8866;-68
2022/05/23 07:35:33;;;;;;;;;9.00;9.00;;;;;;;;5035522;28;8862;-69
2022/05/23 07:38:01;;;;;;;;;6.40;6.40;;;;;;;;5038578;28;8909;-71
2022/05/23 07:40:28;;;;;;;;;7.40;7.40;;;;;;;;5033017;28;8935;-74
2022/05/23 07:42:55;;;;;;;;;8.60;7.00;;;;;;;;5040473;28;8858;-71
2022/05/23 07:45:22;;;;;;;;;7.60;7.60;;;;;;;;5035189;28;8874;-71
2022/05/23 07:47:51;;;;;;;;;34.75;24.00;;;;;;;;5038679;28;8893;-70
2022/05/23 07:50:21;;;;;;;;;5.00;5.00;;;;;;;;5041926;28;8854;-70
2022/05/23 08:00:58;;;;;;;;;10.60;6.00;;;;;;;;5034952;28;8813;-71
2022/05/23 08:03:27;;;;;;;;;7.00;7.00;;;;;;;;5033447;28;8865;-70
2022/05/23 08:05:54;;;;;;;;;6.40;6.40;;;;;;;;5038850;28;8899;-70
2022/05/23 08:08:21;;;;;;;;;8.20;7.60;;;;;;;;5037812;28;9013;-70
2022/05/23 08:10:49;;;;;;;;;7.20;5.60;;;;;;;;5038591;28;9471;-70
2022/05/23 08:13:17;;;;;;;;;6.40;6.40;;;;;;;;5038761;28;8874;-71
2022/05/23 08:15:44;;;;;;;;;6.00;6.00;;;;;;;;5033949;28;8867;-70
2022/05/23 08:18:13;;;;;;;;;8.50;8.50;;;;;;;;5035596;28;8887;-71
2022/05/23 08:20:42;;;;;;;;;7.20;6.40;;;;;;;;5035711;28;8942;-71
2022/05/23 08:23:10;;;;;;;;;6.00;6.00;;;;;;;;5039973;28;8976;-71
2022/05/23 08:25:37;;;;;;;;;6.60;6.00;;;;;;;;5034200;28;8871;-70
2022/05/23 08:28:05;;;;;;;;;8.75;7.00;;;;;;;;5034344;28;8887;-72
2022/05/23 08:30:32;;;;;;;;;6.60;6.60;;;;;;;;5036095;28;8861;-73
2022/05/23 08:32:59;;;;;;;;;7.25;7.25;;;;;;;;5032980;28;8871;-73
2022/05/23 08:35:27;;;;;;;;;7.00;7.00;;;;;;;;5033943;28;8963;-73
2022/05/23 08:37:56;;;;;;;;;6.00;6.00;;;;;;;;5033285;28;8863;-72
2022/05/23 08:40:27;;;;;;;;;6.75;6.75;;;;;;;;5033672;28;8863;-72
2022/05/23 08:42:58;;;;;;;;;5.50;5.50;;;;;;;;5033207;28;8874;-72
2022/05/23 08:45:30;;;;;;;;;8.25;6.75;;;;;;;;5034761;28;8866;-72
2022/05/23 08:48:09;;;;;;;;;8.50;7.25;;;;;;;;5038566;28;8883;-72
2022/05/23 08:50:53;;;;;;;;;8.25;6.25;;;;;;;;5036600;28;8874;-71
2022/05/23 08:53:25;;;;;;;;;6.60;6.40;;;;;;;;5036032;28;9719;-71
2022/05/23 08:55:54;;;;;;;;;11.00;7.50;;;;;;;;5036174;28;8881;-71
2022/05/23 08:58:24;;;;;;;;;10.00;8.75;;;;;;;;5031419;28;8874;-71
2022/05/23 09:00:55;;;;;;;;;7.50;7.50;;;;;;;;5031977;28;8815;-71
2022/05/23 09:03:26;;;;;;;;;6.80;6.60;;;;;;;;5034871;28;9272;-71
2022/05/23 09:05:57;;;;;;;;;5.60;5.60;;;;;;;;5031987;28;8882;-71
2022/05/23 09:08:31;;;;;;;;;9.40;8.60;;;;;;;;5033574;28;8854;-72
2022/05/23 09:11:02;;;;;;;;;6.20;6.20;;;;;;;;5039579;28;8957;-72
2022/05/23 09:13:32;;;;;;;;;7.00;7.00;;;;;;;;5039319;28;8867;-71
2022/05/23 09:16:04;;;;;;;;;5.00;5.00;;;;;;;;5035867;28;8891;-71
2022/05/23 09:18:41;;;;;;;;;7.00;7.00;;;;;;;;5041981;28;8863;-72
2022/05/23 09:21:10;;;;;;;;;10.00;7.20;;;;;;;;5036921;28;8870;-72
2022/05/23 09:23:45;;;;;;;;;6.40;5.20;;;;;;;;5036489;28;8859;-71
2022/05/23 09:26:22;;;;;;;;;8.40;8.40;;;;;;;;5041290;28;8871;-72
2022/05/23 09:28:51;;;;;;;;;9.75;9.75;;;;;;;;5039830;28;9665;-71
2022/05/23 09:31:26;;;;;;;;;9.50;9.50;;;;;;;;5036073;28;8832;-72
2022/05/23 09:33:56;;;;;;;;;10.00;10.00;;;;;;;;5036657;28;8915;-72
2022/05/23 09:36:28;;;;;;;;;11.00;9.00;;;;;;;;5033484;28;8915;-72
2022/05/23 09:38:59;;;;;;;;;9.25;8.50;;;;;;;;5038088;28;8883;-72
2022/05/23 09:49:53;;;;;;;;;14.25;14.25;;;;;;;;5038111;28;8831;-73
2022/05/23 09:52:25;;;;;;;;;5.00;3.40;;;;;;;;5035451;28;8994;-73
2022/05/23 09:54:57;;;;;;;;;9.50;9.00;;;;;;;;5040444;28;8855;-73
2022/05/23 09:57:27;;;;;;;;;13.20;13.00;;;;;;;;5045305;28;8895;-72
2022/05/23 09:59:57;;;;;;;;;14.50;12.50;;;;;;;;5046689;28;8894;-73
2022/05/23 10:02:35;;;;;;;;;13.75;13.50;;;;;;;;5048290;28;8808;-72
2022/05/23 10:05:03;;;;;;;;;18.00;15.25;;;;;;;;5043995;28;8899;-74
2022/05/23 10:07:32;;;;;;;;;17.67;16.00;;;;;;;;5038387;28;8877;-74
2022/05/23 10:10:03;;;;;;;;;15.75;15.75;;;;;;;;5042260;28;8867;-72
2022/05/23 10:12:32;;;;;;;;;14.25;14.25;;;;;;;;5038522;28;8869;-72
2022/05/23 10:15:13;;;;;;;;;17.00;17.00;;;;;;;;5036007;28;8935;-73
2022/05/23 10:17:43;;;;;;;;;21.00;19.50;;;;;;;;5036741;28;8881;-73
2022/05/23 10:20:29;;;;;;;;;19.25;16.50;;;;;;;;5038228;28;8898;-73
2022/05/23 10:23:00;;;;;;;;;12.75;12.75;;;;;;;;5039454;28;9612;-72
2022/05/23 10:25:33;;;;;;;;;10.75;10.75;;;;;;;;5040934;28;8867;-73
2022/05/23 10:28:06;;;;;;;;;12.50;12.50;;;;;;;;5034668;28;8944;-72
2022/05/23 10:30:36;;;;;;;;;18.75;18.75;;;;;;;;5035915;28;8815;-72
2022/05/23 10:33:07;;;;;;;;;19.00;18.00;;;;;;;;5039472;28;8873;-74
2022/05/23 10:35:39;;;;;;;;;25.25;21.00;;;;;;;;5035954;28;8850;-73
2022/05/23 10:43:53;;;;;;;;;15.50;14.25;;;;;;;;5038600;28;8823;-74
2022/05/23 10:46:21;;;;;;;;;17.50;17.50;;;;;;;;5039202;28;8897;-74
2022/05/23 10:48:55;;;;;;;;;14.50;14.00;;;;;;;;5039729;28;8874;-74
2022/05/23 10:51:35;;;;;;;;;19.00;18.50;;;;;;;;5035765;28;8956;-72
2022/05/23 10:54:11;;;;;;;;;19.75;19.75;;;;;;;;5042937;28;8863;-72
2022/05/23 10:57:02;;;;;;;;;15.75;15.75;;;;;;;;5037053;28;8883;-73
2022/05/23 10:59:36;;;;;;;;;17.50;15.50;;;;;;;;5033504;28;9693;-73
2022/05/23 11:02:16;;;;;;;;;23.75;23.75;;;;;;;;5039700;28;8849;-73
2022/05/23 11:04:53;;;;;;;;;19.75;19.75;;;;;;;;5040014;28;8882;-73
2022/05/23 11:07:33;;;;;;;;;16.75;16.75;;;;;;;;5042321;28;8901;-74
2022/05/23 11:10:07;;;;;;;;;20.75;19.25;;;;;;;;5037350;28;8861;-73
2022/05/23 11:12:44;;;;;;;;;18.75;16.75;;;;;;;;5032921;28;8889;-73
2022/05/23 11:15:27;;;;;;;;;14.25;14.00;;;;;;;;5035553;28;8878;-74
2022/05/23 11:18:02;;;;;;;;;14.00;14.00;;;;;;;;5038457;28;8926;-71
2022/05/23 11:20:33;;;;;;;;;16.50;15.75;;;;;;;;5035936;28;8948;-74
2022/05/23 11:23:04;;;;;;;;;28.75;27.00;;;;;;;;5036533;28;8861;-73
2022/05/23 11:25:33;;;;;;;;;22.75;22.75;;;;;;;;5036804;28;8875;-74
2022/05/23 11:33:48;;;;;;;;;26.25;26.25;;;;;;;;5038760;28;8969;-73
2022/05/23 11:36:24;;;;;;;;;25.25;23.50;;;;;;;;5041404;28;8859;-72
2022/05/23 11:38:52;;;;;;;;;26.00;24.75;;;;;;;;5035489;28;8886;-73
2022/05/23 11:41:35;;;;;;;;;26.00;26.00;;;;;;;;5036329;28;8998;-73
2022/05/23 11:44:31;;;;;;;;;24.75;23.75;;;;;;;;5036005;28;8874;-73
2022/05/23 11:47:14;;;;;;;;;37.00;33.00;;;;;;;;5032095;28;8891;-74
2022/05/23 11:49:43;;;;;;;;;33.75;30.75;;;;;;;;5036670;28;8885;-71
2022/05/23 11:52:24;;;;;;;;;30.50;30.00;;;;;;;;5040779;28;8965;-72
2022/05/23 11:54:52;;;;;;;;;33.25;30.00;;;;;;;;5036080;28;9773;-71
2022/05/23 11:57:36;;;;;;;;;28.00;28.00;;;;;;;;5036799;28;8901;-71
2022/05/23 12:00:32;;;;;;;;;36.00;31.00;;;;;;;;5037900;28;9021;-71
2022/05/23 12:03:15;;;;;;;;;40.00;33.50;;;;;;;;5028682;28;8849;-71
2022/05/23 12:05:43;;;;;;;;;35.25;33.00;;;;;;;;5034906;28;8932;-71
2022/05/23 12:08:31;;;;;;;;;36.00;33.50;;;;;;;;5034240;28;8870;-71
2022/05/23 12:11:03;;;;;;;;;41.75;36.50;;;;;;;;5038086;28;8875;-72
2022/05/23 12:13:51;;;;;;;;;43.50;36.50;;;;;;;;5037052;28;8887;-72
2022/05/23 12:16:40;;;;;;;;;39.50;36.50;;;;;;;;5036817;28;8863;-72
2022/05/23 12:19:27;;;;;;;;;45.75;34.75;;;;;;;;5036932;28;8947;-71
2022/05/23 12:21:56;;;;;;;;;38.50;34.00;;;;;;;;5033843;28;8949;-71
2022/05/23 12:24:31;;;;;;;;;48.33;41.67;;;;;;;;5032180;28;8901;-72
2022/05/23 12:27:20;;;;;;;;;50.67;41.67;;;;;;;;5032375;28;9117;-72
2022/05/23 12:29:49;;;;;;;;;51.00;43.00;;;;;;;;5034480;28;9369;-73
2022/05/23 12:32:26;;;;;;;;;51.50;44.00;;;;;;;;5032701;28;9423;-73
2022/05/23 12:34:56;;;;;;;;;55.75;46.50;;;;;;;;5030140;28;10151;-72
2022/05/23 12:37:28;;;;;;;;;56.25;46.00;;;;;;;;5039325;28;9933;-72
2022/05/23 12:40:19;;;;;;;;;57.00;45.25;;;;;;;;5038546;28;9901;-72
2022/05/23 12:42:54;;;;;;;;;58.50;48.00;;;;;;;;5036010;28;9870;-72
2022/05/23 12:45:42;;;;;;;;;57.25;48.00;;;;;;;;5036749;28;9973;-73
2022/05/23 12:48:46;;;;;;;;;57.75;48.50;;;;;;;;5041027;28;9738;-72
2022/05/23 12:54:47;;;;;;;;;38.00;35.33;;;;;;;;5041151;28;9587;-72
2022/05/23 12:57:54;;;;;;;;;48.00;39.33;;;;;;;;5041272;28;9295;-72
2022/05/23 13:00:23;;;;;;;;;26.75;26.75;;;;;;;;5012222;28;9197;-72
2022/05/23 13:02:59;;;;;;;;;27.50;24.00;;;;;;;;4995918;28;8861;-73
2022/05/23 13:05:33;;;;;;;;;21.50;21.50;;;;;;;;5018722;28;8866;-73
2022/05/23 13:08:03;;;;;;;;;17.75;17.75;;;;;;;;5033024;28;8855;-72
2022/05/23 13:10:33;;;;;;;;;15.75;15.75;;;;;;;;5027573;28;9648;-72
2022/05/23 13:13:06;;;;;;;;;18.25;16.50;;;;;;;;5033744;28;8863;-70
2022/05/23 13:15:34;;;;;;;;;15.00;13.75;;;;;;;;5024335;28;8870;-72
2022/05/23 13:23:45;;;;;;;;;15.25;15.25;;;;;;;;4994202;28;8954;-72
2022/05/23 13:26:13;;;;;;;;;16.25;15.50;;;;;;;;5023067;28;8883;-72
2022/05/23 13:28:42;;;;;;;;;13.75;13.75;;;;;;;;5031987;28;8846;-72
2022/05/23 13:31:25;;;;;;;;;13.25;13.25;;;;;;;;5022008;28;8828;-71
2022/05/23 13:33:56;;;;;;;;;13.75;13.75;;;;;;;;5035170;28;8867;-72
2022/05/23 13:36:25;;;;;;;;;16.00;13.00;;;;;;;;5034527;28;8883;-72
2022/05/23 13:39:07;;;;;;;;;10.75;10.00;;;;;;;;5037864;28;9684;-72
2022/05/23 13:41:35;;;;;;;;;12.75;12.75;;;;;;;;5035461;28;8875;-72
2022/05/23 13:44:02;;;;;;;;;12.00;9.00;;;;;;;;5036483;28;8932;-72
2022/05/23 13:46:36;;;;;;;;;11.25;11.25;;;;;;;;5040488;28;8908;-73
2022/05/23 13:49:11;;;;;;;;;12.25;12.25;;;;;;;;5035422;28;8937;-72
2022/05/23 13:51:41;;;;;;;;;11.00;11.00;;;;;;;;5033448;28;8877;-72
2022/05/23 13:54:15;;;;;;;;;13.50;13.50;;;;;;;;5032762;28;8867;-72
2022/05/23 13:56:45;;;;;;;;;12.75;12.75;;;;;;;;5032978;28;8854;-73
2022/05/23 13:59:16;;;;;;;;;9.00;9.00;;;;;;;;5035321;28;8859;-72
2022/05/23 14:01:46;;;;;;;;;8.00;8.00;;;;;;;;5037299;28;8820;-73
2022/05/23 14:04:16;;;;;;;;;14.25;14.25;;;;;;;;5037715;28;8997;-71
2022/05/23 14:06:46;;;;;;;;;12.50;12.50;;;;;;;;5037858;28;8855;-72
2022/05/23 14:09:14;;;;;;;;;16.75;15.50;;;;;;;;5036534;28;8859;-71
2022/05/23 14:11:47;;;;;;;;;17.75;16.25;;;;;;;;5041452;28;8933;-71
2022/05/23 14:14:17;;;;;;;;;16.75;15.50;;;;;;;;5042574;28;8896;-72
2022/05/23 14:16:54;;;;;;;;;16.25;16.25;;;;;;;;5026532;28;8871;-73
2022/05/23 14:19:24;;;;;;;;;13.75;13.75;;;;;;;;5033964;28;8874;-72
2022/05/23 14:22:04;;;;;;;;;8.00;8.00;;;;;;;;5038188;28;8897;-72
2022/05/23 14:24:32;;;;;;;;;12.25;10.75;;;;;;;;5040845;28;9789;-72
2022/05/23 14:27:26;;;;;;;;;14.75;11.75;;;;;;;;5037946;28;9013;-72
2022/05/23 14:30:13;;;;;;;;;11.00;9.00;;;;;;;;5036394;28;8867;-73
2022/05/23 14:32:42;;;;;;;;;6.25;6.00;;;;;;;;5037482;28;8827;-73
2022/05/23 14:35:18;;;;;;;;;10.50;10.00;;;;;;;;5035830;28;8870;-72
2022/05/23 14:37:48;;;;;;;;;8.25;8.25;;;;;;;;5034310;28;8867;-72
2022/05/23 14:40:15;;;;;;;;;6.75;6.75;;;;;;;;5042963;28;8870;-72
2022/05/23 14:42:50;;;;;;;;;7.25;7.25;;;;;;;;5042762;28;8860;-72
2022/05/23 14:45:26;;;;;;;;;4.00;4.00;;;;;;;;5039703;28;8886;-72
2022/05/23 14:48:17;;;;;;;;;6.50;6.50;;;;;;;;5044018;28;8858;-73
2022/05/23 14:50:53;;;;;;;;;8.50;8.50;;;;;;;;5038792;28;8875;-72
2022/05/23 14:56:25;;;;;;;;;8.75;8.75;;;;;;;;5042535;28;8858;-72
2022/05/23 15:01:40;;;;;;;;;8.00;8.00;;;;;;;;5039833;28;8799;-74
2022/05/23 15:04:10;;;;;;;;;6.25;6.25;;;;;;;;5037410;28;8894;-73
2022/05/23 15:06:39;;;;;;;;;7.00;7.00;;;;;;;;5039435;28;8883;-74
2022/05/23 15:09:06;;;;;;;;;10.75;9.25;;;;;;;;5040126;28;8996;-74
2022/05/23 15:11:37;;;;;;;;;8.00;8.00;;;;;;;;5038693;28;9676;-73
2022/05/23 15:14:06;;;;;;;;;10.00;10.00;;;;;;;;5039572;28;8893;-73
2022/05/23 15:16:36;;;;;;;;;9.50;9.50;;;;;;;;5038873;28;8883;-74
2022/05/23 15:19:04;;;;;;;;;7.50;7.50;;;;;;;;5041271;28;8877;-74
2022/05/23 15:21:32;;;;;;;;;11.00;10.75;;;;;;;;5034826;28;8912;-73
2022/05/23 15:24:00;;;;;;;;;13.50;9.75;;;;;;;;5036572;28;9683;-73
2022/05/23 15:26:30;;;;;;;;;10.00;9.50;;;;;;;;5043171;28;8871;-74
2022/05/23 15:28:59;;;;;;;;;12.50;12.50;;;;;;;;5036352;28;8866;-72
2022/05/23 15:31:27;;;;;;;;;13.75;13.75;;;;;;;;5029043;28;8807;-73
2022/05/23 15:33:57;;;;;;;;;13.00;11.75;;;;;;;;5032192;28;8991;-73
2022/05/23 15:36:25;;;;;;;;;11.50;10.75;;;;;;;;5037044;28;9019;-74
2022/05/23 15:38:52;;;;;;;;;12.75;12.25;;;;;;;;5038927;28;8882;-73
2022/05/23 15:41:21;;;;;;;;;10.25;10.25;;;;;;;;5037359;28;8867;-72
2022/05/23 15:43:48;;;;;;;;;11.00;11.00;;;;;;;;5034298;28;8895;-72
2022/05/23 15:46:21;;;;;;;;;10.75;10.75;;;;;;;;5033985;28;9580;-72
2022/05/23 15:48:48;;;;;;;;;8.00;8.00;;;;;;;;5033777;28;8867;-72
2022/05/23 15:51:16;;;;;;;;;11.75;11.75;;;;;;;;5031786;28;8982;-72
2022/05/23 15:53:45;;;;;;;;;16.50;14.25;;;;;;;;5033296;28;8894;-72
2022/05/23 15:56:13;;;;;;;;;14.75;13.00;;;;;;;;5035758;28;8858;-72
2022/05/23 15:58:43;;;;;;;;;13.00;13.00;;;;;;;;5039451;28;8916;-72
2022/05/23 16:01:13;;;;;;;;;16.00;16.00;;;;;;;;5034929;28;8787;-73
2022/05/23 16:03:41;;;;;;;;;12.75;12.75;;;;;;;;5035237;28;8878;-72
2022/05/23 16:06:08;;;;;;;;;13.50;13.50;;;;;;;;5031796;28;8847;-74
2022/05/23 16:08:36;;;;;;;;;13.25;12.75;;;;;;;;5028688;28;8859;-74
2022/05/23 16:11:06;;;;;;;;;13.25;13.25;;;;;;;;5030540;28;8871;-75
2022/05/23 16:13:35;;;;;;;;;17.75;17.75;;;;;;;;5029345;28;8878;-72
2022/05/23 16:16:06;;;;;;;;;14.00;12.50;;;;;;;;5030334;28;8871;-72
2022/05/23 16:18:34;;;;;;;;;15.75;14.50;;;;;;;;5030589;28;8887;-72
2022/05/23 16:21:02;;;;;;;;;13.00;13.00;;;;;;;;5030295;28;8874;-73
2022/05/23 16:23:32;;;;;;;;;10.25;10.25;;;;;;;;5028064;28;8875;-73
2022/05/23 16:26:00;;;;;;;;;13.25;12.00;;;;;;;;5037962;28;8875;-73